Time;durP1;ratioP1;P1;durP2;ratioP2;P2;SDS_P1;SDS_P2;PMS_P1;PMS_P2;Temp;Humidity;BMP_temperature;BMP_pressure;BME280_temperature;BME280_humidity;BME280_pressure;Samples;Min_cycle;Max_cycle;Signal;HPM_P1;HPM_P2
2022/11/29 00:01:37;;;;;;;77.60;51.60;;;;;;;-1.78;100.00;99378.12;105909;1291;60280;-75
2022/11/29 00:04:05;;;;;;;74.60;50.30;;;;;;;-1.77;100.00;99375.31;105937;1290;66096;-75
2022/11/29 00:06:33;;;;;;;84.50;53.80;;;;;;;-1.75;100.00;99376.88;105915;1289;59959;-75
2022/11/29 00:09:02;;;;;;;78.50;52.20;;;;;;;-1.74;100.00;99380.85;105909;1290;62685;-74
2022/11/29 00:14:17;;;;;;;80.00;48.70;;;;;;;-1.76;100.00;99384.19;105917;1290;58999;-75
2022/11/29 00:16:44;;;;;;;73.60;49.80;;;;;;;-1.78;100.00;99381.08;105674;1292;64685;-75
2022/11/29 00:19:11;;;;;;;74.90;48.30;;;;;;;-1.78;100.00;99372.89;105950;1291;59181;-75
2022/11/29 00:21:38;;;;;;;71.50;47.80;;;;;;;-1.79;100.00;99371.67;105893;1291;64051;-75
2022/11/29 00:24:04;;;;;;;76.30;50.80;;;;;;;-1.79;100.00;99366.98;105932;1291;58906;-75
2022/11/29 00:26:30;;;;;;;68.60;47.70;;;;;;;-1.81;100.00;99370.48;105903;1281;58867;-75
2022/11/29 00:28:56;;;;;;;78.60;52.60;;;;;;;-1.84;100.00;99370.87;105708;1283;58858;-75
2022/11/29 00:31:26;;;;;;;76.80;51.70;;;;;;;-1.86;100.00;99377.50;105898;1274;59071;-75
2022/11/29 00:33:52;;;;;;;74.70;50.10;;;;;;;-1.88;100.00;99377.34;105895;1290;64028;-74
2022/11/29 00:36:19;;;;;;;78.50;52.00;;;;;;;-1.90;100.00;99375.28;105905;1291;58840;-74
2022/11/29 00:38:45;;;;;;;73.60;48.90;;;;;;;-1.92;100.00;99373.91;105913;1290;60169;-75
2022/11/29 00:41:12;;;;;;;72.20;47.30;;;;;;;-1.94;100.00;99375.33;105919;1290;66125;-74
2022/11/29 00:43:38;;;;;;;73.80;49.20;;;;;;;-1.95;100.00;99373.06;105933;1286;59245;-75
2022/11/29 00:46:04;;;;;;;70.70;45.70;;;;;;;-1.96;100.00;99372.73;105931;1291;58990;-75
2022/11/29 00:48:30;;;;;;;71.90;47.90;;;;;;;-1.97;100.00;99370.65;105908;1283;58921;-74
2022/11/29 00:50:56;;;;;;;75.50;49.90;;;;;;;-1.99;100.00;99369.64;105931;1276;58886;-74
2022/11/29 00:53:22;;;;;;;78.10;49.80;;;;;;;-2.00;100.00;99370.69;105943;1283;59410;-74
2022/11/29 00:55:50;;;;;;;81.30;51.60;;;;;;;-2.00;100.00;99369.12;105928;1290;58896;-74
2022/11/29 00:58:16;;;;;;;79.10;51.00;;;;;;;-1.99;100.00;99372.23;105928;1291;59033;-75
2022/11/29 01:00:42;;;;;;;76.00;50.70;;;;;;;-1.99;100.00;99375.02;105919;1290;58942;-74
2022/11/29 01:03:11;;;;;;;80.30;52.40;;;;;;;-2.00;100.00;99369.11;105196;1291;1002735;-74
2022/11/29 01:05:36;;;;;;;81.30;51.60;;;;;;;-2.02;100.00;99367.56;105928;1290;64765;-75
2022/11/29 01:08:02;;;;;;;71.80;46.90;;;;;;;-1.99;100.00;99370.33;105916;1290;58942;-74
2022/11/29 01:10:29;;;;;;;81.40;51.50;;;;;;;-1.97;100.00;99365.61;105921;1290;59123;-75
2022/11/29 01:12:55;;;;;;;70.30;49.50;;;;;;;-1.96;100.00;99365.77;105920;1291;58975;-75
2022/11/29 01:15:21;;;;;;;83.00;55.00;;;;;;;-1.96;100.00;99367.52;105960;1277;58912;-75
2022/11/29 01:17:48;;;;;;;78.10;50.90;;;;;;;-1.99;100.00;99358.48;105941;1283;59031;-76
2022/11/29 01:20:15;;;;;;;76.00;50.60;;;;;;;-1.96;100.00;99354.63;105944;1282;58931;-75
2022/11/29 01:22:41;;;;;;;76.00;50.90;;;;;;;-1.94;100.00;99357.05;105926;1291;58979;-75
2022/11/29 01:25:10;;;;;;;76.80;49.90;;;;;;;-1.96;100.00;99359.68;105929;1290;59306;-75
2022/11/29 01:27:36;;;;;;;72.30;49.30;;;;;;;-1.99;100.00;99365.27;105878;1293;59554;-75
2022/11/29 01:30:05;;;;;;;71.20;46.70;;;;;;;-2.02;100.00;99366.70;105905;1290;66702;-76
2022/11/29 01:32:31;;;;;;;80.80;51.20;;;;;;;-2.03;100.00;99361.14;105744;1291;58930;-75
2022/11/29 01:34:57;;;;;;;74.50;46.50;;;;;;;-2.04;100.00;99357.66;105926;1291;59086;-75
2022/11/29 01:37:24;;;;;;;69.50;46.50;;;;;;;-2.05;100.00;99354.20;105898;1283;58905;-74
2022/11/29 01:39:50;;;;;;;73.10;48.50;;;;;;;-2.06;100.00;99352.82;105929;1283;58945;-75
2022/11/29 01:42:16;;;;;;;66.50;45.40;;;;;;;-2.07;100.00;99348.65;105920;1284;58912;-75
2022/11/29 01:44:45;;;;;;;73.60;48.30;;;;;;;-2.09;100.00;99349.02;105933;1291;58999;-75
2022/11/29 01:47:11;;;;;;;76.60;49.50;;;;;;;-2.11;100.00;99346.77;105919;1290;62522;-75
2022/11/29 01:49:42;;;;;;;78.70;50.10;;;;;;;-2.12;100.00;99342.61;105925;1283;58871;-75
2022/11/29 01:52:13;;;;;;;73.60;48.20;;;;;;;-2.14;100.00;99343.84;105681;1283;58990;-75
2022/11/29 01:54:45;;;;;;;77.40;51.00;;;;;;;-2.17;100.00;99348.58;105937;1284;65971;-75
2022/11/29 01:57:12;;;;;;;71.60;47.30;;;;;;;-2.19;100.00;99345.29;105774;1283;58997;-75
2022/11/29 01:59:43;;;;;;;71.40;47.40;;;;;;;-2.21;100.00;99341.65;105932;1291;59113;-75
2022/11/29 02:02:14;;;;;;;83.70;50.50;;;;;;;-2.22;100.00;99346.55;105946;1291;58878;-75
2022/11/29 02:04:44;;;;;;;72.70;48.50;;;;;;;-2.25;100.00;99349.52;105910;1290;60246;-75
2022/11/29 02:07:10;;;;;;;72.80;48.10;;;;;;;-2.28;100.00;99348.16;105956;1283;66048;-75
2022/11/29 02:09:36;;;;;;;85.80;56.30;;;;;;;-2.29;100.00;99353.91;105920;1290;58853;-75
2022/11/29 02:12:15;;;;;;;78.00;52.30;;;;;;;-2.31;100.00;99353.94;105930;1283;59893;-75
2022/11/29 02:14:59;;;;;;;80.00;52.50;;;;;;;-2.34;100.00;99353.08;105913;1290;58829;-75
2022/11/29 02:17:34;;;;;;;80.90;51.70;;;;;;;-2.36;100.00;99353.80;105935;1280;58838;-75
2022/11/29 02:20:00;;;;;;;81.50;51.50;;;;;;;-2.39;100.00;99350.34;105924;1283;64722;-74
2022/11/29 02:22:51;;;;;;;78.20;51.40;;;;;;;-2.41;100.00;99349.15;105925;1284;58852;-75
2022/11/29 02:25:36;;;;;;;82.10;51.30;;;;;;;-2.45;100.00;99354.05;105909;1290;63969;-71
2022/11/29 02:28:41;;;;;;;86.20;50.70;;;;;;;-2.47;100.00;99358.25;105876;1275;58934;-74
2022/11/29 02:31:19;;;;;;;87.80;53.00;;;;;;;-2.49;100.00;99358.09;105286;1299;59294;-75
2022/11/29 02:33:53;;;;;;;83.50;51.60;;;;;;;-2.50;100.00;99359.30;105288;1298;66098;-75
2022/11/29 02:36:47;;;;;;;83.30;51.60;;;;;;;-2.50;100.00;99362.10;105281;1292;60073;-74
2022/11/29 02:39:27;;;;;;;79.10;49.60;;;;;;;-2.52;100.00;99361.92;105278;1299;63419;-74
2022/11/29 02:42:17;;;;;;;81.50;50.70;;;;;;;-2.54;100.00;99361.25;105254;1299;59079;-74
2022/11/29 02:44:52;;;;;;;83.00;50.30;;;;;;;-2.56;100.00;99360.23;105306;1300;59050;-75
2022/11/29 02:47:38;;;;;;;89.30;51.70;;;;;;;-2.57;100.00;99366.34;105297;1299;66122;-75
2022/11/29 02:50:31;;;;;;;74.30;46.70;;;;;;;-2.58;100.00;99368.25;105296;1299;59339;-75
2022/11/29 02:53:02;;;;;;;82.70;48.30;;;;;;;-2.55;100.00;99368.77;105285;1299;64262;-73
2022/11/29 02:56:03;;;;;;;80.30;48.30;;;;;;;-2.54;100.00;99367.52;104397;1308;1002037;-74
2022/11/29 02:59:03;;;;;;;80.10;51.00;;;;;;;-2.53;100.00;99370.11;105303;1299;59063;-74
2022/11/29 03:01:33;;;;;;;;;;;;;;;-2.53;100.00;99372.89;105309;1299;66506;-74
2022/11/29 03:04:16;;;;;;;88.40;51.40;;;;;;;-2.54;100.00;99375.17;105293;1305;60855;-74
2022/11/29 03:06:54;;;;;;;87.70;53.30;;;;;;;-2.54;100.00;99376.21;105289;1292;71478;-75
2022/11/29 03:09:34;;;;;;;82.90;50.10;;;;;;;-2.53;100.00;99375.84;105863;1283;58969;-75
2022/11/29 03:12:30;;;;;;;79.60;49.20;;;;;;;-2.51;100.00;99381.58;105915;1284;59738;-74
2022/11/29 03:15:09;;;;;;;87.00;51.50;;;;;;;-2.50;100.00;99383.14;105947;1291;67321;-75
2022/11/29 03:17:54;;;;;;;86.90;54.10;;;;;;;-2.48;100.00;99390.08;105906;1290;59900;-75
2022/11/29 03:20:35;;;;;;;90.00;56.00;;;;;;;-2.45;100.00;99394.59;105928;1290;65074;-75
2022/11/29 03:23:13;;;;;;;91.60;59.10;;;;;;;-2.43;100.00;99398.92;105912;1290;60087;-75
2022/11/29 03:25:44;;;;;;;91.40;57.00;;;;;;;-2.39;100.00;99397.16;105587;1289;60666;-74
2022/11/29 03:28:27;;;;;;;94.80;58.60;;;;;;;-2.36;100.00;99393.65;105924;1291;67104;-74
2022/11/29 03:31:11;;;;;;;90.90;53.80;;;;;;;-2.33;100.00;99396.23;105929;1290;61071;-75
2022/11/29 03:33:48;;;;;;;96.00;57.80;;;;;;;-2.31;100.00;99397.42;105654;1290;65170;-75
2022/11/29 03:36:38;;;;;;;91.40;54.70;;;;;;;-2.28;100.00;99396.36;105925;1283;58873;-75
2022/11/29 03:39:12;;;;;;;86.20;50.80;;;;;;;-2.26;100.00;99396.17;105932;1283;59837;-75
2022/11/29 03:42:01;;;;;;;84.50;51.30;;;;;;;-2.25;100.00;99401.73;105912;1290;67130;-74
2022/11/29 03:44:33;;;;;;;104.70;53.00;;;;;;;-2.23;100.00;99399.80;105772;1293;61052;-74
2022/11/29 03:47:15;;;;;;;83.70;48.00;;;;;;;-2.22;100.00;99401.88;105928;1290;64899;-75
2022/11/29 03:49:50;;;;;;;80.80;48.20;;;;;;;-2.25;100.00;99406.09;105905;1291;58800;-75
2022/11/29 03:52:30;;;;;;;96.90;49.00;;;;;;;-2.27;100.00;99407.84;105917;1291;58869;-75
2022/11/29 03:55:09;;;;;;;;;;;;;;;-2.27;100.00;99409.04;105685;1295;67018;-74
2022/11/29 03:58:01;;;;;;;82.50;48.50;;;;;;;-2.28;100.00;99409.92;105930;1283;59683;-75
2022/11/29 04:00:43;;;;;;;88.30;47.70;;;;;;;-2.28;100.00;99410.11;105922;1291;62601;-75
2022/11/29 04:03:24;;;;;;;91.70;57.60;;;;;;;-2.28;100.00;99407.50;105923;1291;58880;-75
2022/11/29 04:06:19;;;;;;;91.20;53.40;;;;;;;-2.29;100.00;99414.48;105930;1290;58794;-77
2022/11/29 04:09:23;;;;;;;89.50;49.80;;;;;;;-2.27;100.00;99417.92;105957;1290;65897;-75
2022/11/29 04:12:07;;;;;;;83.20;46.90;;;;;;;-2.27;100.00;99419.66;105914;1291;59906;-75
2022/11/29 04:15:06;;;;;;;92.00;45.20;;;;;;;-2.29;100.00;99418.11;105950;1291;65389;-75
2022/11/29 04:18:05;;;;;;;85.10;46.00;;;;;;;-2.33;100.00;99424.06;105919;1291;59670;-75
2022/11/29 04:20:46;;;;;;;87.30;47.30;;;;;;;-2.34;100.00;99425.98;105759;1286;59049;-75
2022/11/29 04:23:42;;;;;;;100.50;47.70;;;;;;;-2.36;100.00;99423.40;105917;1290;74790;-75
2022/11/29 04:26:33;;;;;;;85.80;43.80;;;;;;;-2.37;100.00;99422.02;105937;1291;61291;-75
2022/11/29 04:29:03;;;;;;;92.90;47.10;;;;;;;-2.39;100.00;99422.73;105916;1284;65052;-75
2022/11/29 04:31:31;;;;;;;96.00;48.00;;;;;;;-2.38;100.00;99423.41;105166;1287;1002377;-74
2022/11/29 04:34:16;;;;;;;82.60;45.10;;;;;;;-2.37;100.00;99424.98;105920;1290;60073;-75
2022/11/29 04:37:12;;;;;;;91.10;47.30;;;;;;;-2.41;100.00;99428.14;105913;1291;67196;-74
2022/11/29 04:39:38;;;;;;;89.40;48.00;;;;;;;-2.41;100.00;99432.84;105940;1283;61004;-75
2022/11/29 04:42:24;;;;;;;93.90;49.20;;;;;;;-2.40;100.00;99433.17;105936;1283;59008;-75
2022/11/29 04:45:09;;;;;;;96.40;52.00;;;;;;;-2.38;100.00;99434.72;105469;1298;58966;-75
2022/11/29 04:48:06;;;;;;;106.30;50.90;;;;;;;-2.37;100.00;99434.90;105932;1283;58940;-77
2022/11/29 04:51:01;;;;;;;86.00;45.30;;;;;;;-2.37;100.00;99437.34;105932;1291;65991;-75
2022/11/29 04:53:29;;;;;;;88.10;49.40;;;;;;;-2.37;100.00;99438.89;105925;1283;61009;-75
2022/11/29 04:56:14;;;;;;;82.70;47.20;;;;;;;-2.35;100.00;99444.96;105915;1291;72676;-74
2022/11/29 04:58:52;;;;;;;87.70;50.40;;;;;;;-2.34;100.00;99448.79;105916;1289;58965;-75
2022/11/29 05:01:53;;;;;;;86.80;51.00;;;;;;;-2.34;100.00;99451.92;105717;1290;59291;-74
2022/11/29 05:04:25;;;;;;;80.40;44.10;;;;;;;-2.32;100.00;99453.66;105881;1290;74781;-74
2022/11/29 05:07:01;;;;;;;80.10;44.60;;;;;;;-2.35;100.00;99457.15;105945;1290;61016;-74
2022/11/29 05:09:37;;;;;;;87.80;46.20;;;;;;;-2.37;100.00;99462.73;105928;1283;64967;-74
2022/11/29 05:12:47;;;;;;;80.80;45.30;;;;;;;-2.38;100.00;99465.00;104929;1293;1002397;-74
2022/11/29 05:15:51;;;;;;;76.10;45.90;;;;;;;-2.36;100.00;99462.21;105512;1290;58881;-74
2022/11/29 05:18:42;;;;;;;83.00;46.40;;;;;;;-2.34;100.00;99467.05;104803;1298;1002240;-73
2022/11/29 05:21:15;;;;;;;96.00;43.70;;;;;;;-2.33;100.00;99463.91;105519;1295;59751;-74
2022/11/29 05:24:01;;;;;;;74.20;40.70;;;;;;;-2.34;100.00;99462.70;105545;1297;64243;-73
2022/11/29 05:26:35;;;;;;;74.90;42.10;;;;;;;-2.40;100.00;99462.06;105501;1293;59357;-75
2022/11/29 05:29:28;;;;;;;72.30;42.70;;;;;;;-2.45;100.00;99465.40;105515;1297;58961;-75
2022/11/29 05:32:10;;;;;;;75.10;41.90;;;;;;;-2.47;100.00;99467.69;105522;1296;66218;-75
2022/11/29 05:34:39;;;;;;;63.60;35.70;;;;;;;-2.48;100.00;99477.77;105524;1295;61233;-75
2022/11/29 05:37:23;;;;;;;72.90;42.00;;;;;;;-2.49;100.00;99484.21;105527;1295;65327;-75
2022/11/29 05:40:08;;;;;;;90.50;43.40;;;;;;;-2.49;100.00;99491.70;105513;1290;59697;-75
2022/11/29 05:42:41;;;;;;;85.30;44.10;;;;;;;-2.50;100.00;99490.66;105514;1295;58854;-75
2022/11/29 05:45:15;;;;;;;76.80;42.20;;;;;;;-2.50;100.00;99489.27;105528;1296;67082;-75
2022/11/29 05:47:51;;;;;;;74.40;39.70;;;;;;;-2.51;100.00;99493.27;105544;1297;60083;-75
2022/11/29 05:50:29;;;;;;;78.70;43.90;;;;;;;-2.53;100.00;99497.46;105847;1291;64790;-74
2022/11/29 05:52:57;;;;;;;75.20;42.20;;;;;;;-2.54;100.00;99499.56;105915;1283;59058;-74
2022/11/29 05:55:41;;;;;;;80.10;41.90;;;;;;;-2.53;100.00;99499.55;105958;1292;58913;-76
2022/11/29 05:58:17;;;;;;;88.80;43.40;;;;;;;-2.53;100.00;99499.90;105912;1291;66991;-73
2022/11/29 06:00:48;;;;;;;78.30;42.70;;;;;;;-2.54;100.00;99498.69;105946;1290;68777;-75
2022/11/29 06:03:35;;;;;;;94.10;44.50;;;;;;;-2.52;100.00;99504.76;105923;1283;63957;-74
2022/11/29 06:06:13;;;;;;;83.20;44.80;;;;;;;-2.51;100.00;99509.45;105934;1295;58906;-75
2022/11/29 06:09:12;;;;;;;89.60;48.30;;;;;;;-2.50;100.00;99518.67;105752;1293;60501;-74
2022/11/29 06:11:45;;;;;;;86.30;49.20;;;;;;;-2.49;100.00;99516.75;105948;1283;67078;-74
2022/11/29 06:14:50;;;;;;;86.60;49.50;;;;;;;-2.47;100.00;99515.16;105937;1291;68734;-74
2022/11/29 06:17:35;;;;;;;95.30;47.10;;;;;;;-2.46;100.00;99514.82;105402;1295;65578;-74
2022/11/29 06:20:17;;;;;;;77.80;42.70;;;;;;;-2.51;100.00;99523.36;105396;1296;59968;-74
2022/11/29 06:23:17;;;;;;;75.90;42.90;;;;;;;-2.56;100.00;99525.83;105400;1290;60805;-74
2022/11/29 06:26:11;;;;;;;84.30;42.80;;;;;;;-2.56;100.00;99524.96;105394;1296;65906;-74
2022/11/29 06:29:00;;;;;;;79.50;40.90;;;;;;;-2.59;100.00;99526.02;105406;1296;59662;-75
2022/11/29 06:31:33;;;;;;;88.00;42.50;;;;;;;-2.62;100.00;99528.13;105385;1295;65231;-75
2022/11/29 06:34:19;;;;;;;85.00;44.40;;;;;;;-2.61;100.00;99528.12;105385;1296;59030;-75
2022/11/29 06:36:55;;;;;;;69.60;40.00;;;;;;;-2.62;100.00;99527.08;105393;1296;58990;-75
2022/11/29 06:39:22;;;;;;;88.00;40.80;;;;;;;-2.67;100.00;99525.36;105263;1298;67381;-75
2022/11/29 06:41:47;;;;;;;81.50;40.90;;;;;;;-2.72;100.00;99525.91;105368;1298;58967;-75
2022/11/29 06:44:14;;;;;;;69.70;39.90;;;;;;;-2.74;100.00;99530.63;105259;1307;58984;-75
2022/11/29 06:46:45;;;;;;;73.90;40.10;;;;;;;-2.75;100.00;99534.96;105355;1296;59081;-74
2022/11/29 06:49:27;;;;;;;70.80;40.30;;;;;;;-2.75;100.00;99543.66;105387;1288;59005;-75
2022/11/29 06:52:20;;;;;;;80.20;43.40;;;;;;;-2.76;100.00;99546.28;105372;1293;75049;-75
2022/11/29 06:54:55;;;;;;;86.90;40.50;;;;;;;-2.77;100.00;99548.18;105808;1283;61493;-75
2022/11/29 06:57:34;;;;;;;80.40;43.00;;;;;;;-2.77;100.00;99548.19;105908;1291;64402;-75
2022/11/29 07:00:10;;;;;;;81.70;46.00;;;;;;;-2.75;100.00;99548.20;105640;1293;58965;-75
2022/11/29 07:02:58;;;;;;;84.80;44.20;;;;;;;-2.70;100.00;99546.77;105916;1290;58909;-75
2022/11/29 07:05:29;;;;;;;88.20;42.50;;;;;;;-2.65;100.00;99545.70;105898;1290;74882;-75
2022/11/29 07:08:01;;;;;;;92.00;46.10;;;;;;;-2.60;100.00;99546.55;105947;1290;61256;-75
2022/11/29 07:10:29;;;;;;;83.20;47.40;;;;;;;-2.57;100.00;99542.19;105917;1289;65075;-75
2022/11/29 07:12:55;;;;;;;87.80;52.20;;;;;;;-2.54;100.00;99544.09;105688;1293;58939;-75
2022/11/29 07:15:22;;;;;;;92.40;50.70;;;;;;;-2.51;100.00;99549.10;105911;1290;59260;-75
2022/11/29 07:18:00;;;;;;;90.20;49.90;;;;;;;-2.45;100.00;99550.14;105598;1295;74625;-75
2022/11/29 07:20:52;;;;;;;92.80;51.40;;;;;;;-2.40;100.00;99550.63;105688;1294;61264;-75
2022/11/29 07:23:49;;;;;;;84.50;45.90;;;;;;;-2.36;100.00;99556.52;105263;1298;65110;-74
2022/11/29 07:26:37;;;;;;;84.90;45.20;;;;;;;-2.28;100.00;99555.42;105270;1298;59013;-75
2022/11/29 07:29:31;;;;;;;83.40;47.70;;;;;;;-2.22;100.00;99558.34;105285;1299;58799;-75
2022/11/29 07:31:57;;;;;;;87.60;51.70;;;;;;;-2.14;100.00;99560.56;105273;1289;66014;-75
2022/11/29 07:34:48;;;;;;;76.30;44.70;;;;;;;-2.07;100.00;99562.08;105282;1291;58898;-75
2022/11/29 07:37:25;;;;;;;73.20;45.60;;;;;;;-2.06;100.00;99564.32;105239;1299;65290;-75
2022/11/29 07:40:00;;;;;;;78.00;41.60;;;;;;;-2.01;100.00;99566.04;105280;1290;58972;-74
2022/11/29 07:42:54;;;;;;;70.00;41.20;;;;;;;-1.94;100.00;99568.95;105279;1297;58894;-74
2022/11/29 07:45:26;;;;;;;84.80;50.00;;;;;;;-1.86;100.00;99568.02;105267;1298;64780;-74
2022/11/29 07:47:52;;;;;;;76.20;44.30;;;;;;;-1.79;100.00;99567.45;105278;1306;61355;-74
2022/11/29 07:50:19;;;;;;;78.00;46.50;;;;;;;-1.74;100.00;99569.68;105258;1300;59164;-74
2022/11/29 07:52:46;;;;;;;85.10;47.30;;;;;;;-1.70;100.00;99568.60;105283;1298;60800;-74
2022/11/29 07:55:15;;;;;;;81.40;50.90;;;;;;;-1.65;100.00;99565.42;105282;1300;59031;-76
2022/11/29 07:57:42;;;;;;;73.10;43.70;;;;;;;-1.60;100.00;99569.73;105286;1300;66032;-76
2022/11/29 08:00:11;;;;;;;74.80;42.50;;;;;;;-1.58;100.00;99569.36;105461;1295;58977;-75
2022/11/29 08:02:37;;;;;;;72.00;40.90;;;;;;;-1.56;100.00;99571.27;105920;1290;72811;-75
2022/11/29 08:05:08;;;;;;;69.80;39.00;;;;;;;-1.59;100.00;99573.20;105942;1284;58914;-75
2022/11/29 08:07:34;;;;;;;;;;;;;;;-1.55;100.00;99572.98;105934;1283;60075;-76
2022/11/29 08:10:01;;;;;;;57.90;35.20;;;;;;;-1.52;100.00;99571.23;105682;1294;67249;-76
2022/11/29 08:12:27;;;;;;;62.90;37.60;;;;;;;-1.49;100.00;99576.43;105909;1291;60920;-76
2022/11/29 08:14:53;;;;;;;63.70;36.30;;;;;;;-1.47;100.00;99581.12;105956;1291;59367;-76
2022/11/29 08:17:19;;;;;;;60.90;36.50;;;;;;;-1.44;100.00;99578.83;105917;1285;58945;-76
2022/11/29 08:19:45;;;;;;;69.10;39.40;;;;;;;-1.44;100.00;99578.83;105909;1290;58973;-75
2022/11/29 08:22:11;;;;;;;66.00;37.10;;;;;;;-1.47;100.00;99581.13;105645;1287;59139;-76
2022/11/29 08:24:37;;;;;;;95.60;38.60;;;;;;;-1.53;100.00;99580.65;105923;1275;58879;-77
2022/11/29 08:27:03;;;;;;;69.60;36.20;;;;;;;-1.56;100.00;99584.50;105936;1281;58935;-76
2022/11/29 08:29:29;;;;;;;68.10;37.80;;;;;;;-1.59;100.00;99589.92;105918;1291;58937;-76
2022/11/29 08:31:55;;;;;;;64.40;36.20;;;;;;;-1.61;100.00;99592.73;105950;1291;59027;-75
2022/11/29 08:34:23;;;;;;;81.00;38.50;;;;;;;-1.60;100.00;99592.20;105933;1292;60956;-77
2022/11/29 08:36:49;;;;;;;83.80;39.90;;;;;;;-1.54;100.00;99594.42;105912;1291;72329;-76
2022/11/29 08:39:16;;;;;;;70.50;41.80;;;;;;;-1.47;100.00;99597.16;105923;1287;58914;-76
2022/11/29 08:41:42;;;;;;;63.70;37.60;;;;;;;-1.38;100.00;99592.20;105626;1287;59086;-75
2022/11/29 08:44:08;;;;;;;81.90;42.30;;;;;;;-1.33;100.00;99595.98;105919;1290;59026;-76
2022/11/29 08:49:19;;;;;;;70.40;38.60;;;;;;;-1.27;100.00;99595.92;105772;1290;63779;-78
2022/11/29 08:51:44;;;;;;;69.90;37.80;;;;;;;-1.21;100.00;99598.32;105903;1284;59321;-84
2022/11/29 08:54:11;;;;;;;64.30;35.10;;;;;;;-1.18;100.00;99597.42;105961;1283;59117;-78
2022/11/29 08:56:37;;;;;;;75.70;37.80;;;;;;;-1.17;100.00;99593.21;105935;1292;58888;-81
2022/11/29 08:59:04;;;;;;;79.20;38.40;;;;;;;-1.13;100.00;99590.39;105937;1292;59337;-76
2022/11/29 09:01:30;;;;;;;72.10;38.30;;;;;;;-1.08;100.00;99592.95;105896;1291;59027;-74
2022/11/29 09:03:59;;;;;;;62.20;35.90;;;;;;;-1.03;100.00;99594.64;105925;1283;58903;-74
2022/11/29 09:06:27;;;;;;;64.50;36.20;;;;;;;-0.97;100.00;99589.17;105741;1294;58956;-74
2022/11/29 09:08:55;;;;;;;79.40;37.80;;;;;;;-0.87;100.00;99589.08;105928;1291;67243;-73
2022/11/29 09:11:23;;;;;;;75.30;39.50;;;;;;;-0.82;100.00;99591.27;105832;1291;70061;-73
2022/11/29 09:13:51;;;;;;;64.90;35.80;;;;;;;-0.77;100.00;99591.05;105797;1289;64043;-73
2022/11/29 09:16:21;;;;;;;71.20;35.90;;;;;;;-0.76;100.00;99593.13;105900;1291;58922;-72
2022/11/29 09:18:51;;;;;;;67.70;39.50;;;;;;;-0.76;100.00;99594.88;105771;1289;58901;-73
2022/11/29 09:21:17;;;;;;;75.40;37.90;;;;;;;-0.74;100.00;99594.14;105963;1289;67162;-72
2022/11/29 09:23:44;;;;;;;62.10;35.90;;;;;;;-0.72;100.00;99595.70;105939;1287;59383;-73
2022/11/29 09:26:15;;;;;;;65.10;37.30;;;;;;;-0.77;100.00;99591.39;105933;1291;59064;-73
2022/11/29 09:28:41;;;;;;;64.50;40.70;;;;;;;-0.77;100.00;99592.79;105756;1285;58944;-74
2022/11/29 09:31:11;;;;;;;73.60;41.60;;;;;;;-0.65;100.00;99587.77;105950;1291;58797;-74
2022/11/29 09:33:38;;;;;;;67.80;41.40;;;;;;;-0.53;100.00;99589.01;105926;1290;66329;-73
2022/11/29 09:36:06;;;;;;;62.50;37.60;;;;;;;-0.45;100.00;99587.68;105942;1285;60089;-73
2022/11/29 09:38:33;;;;;;;91.00;59.60;;;;;;;-0.41;100.00;99585.89;105936;1291;65114;-73
2022/11/29 09:41:27;;;;;;;85.90;55.70;;;;;;;-0.32;100.00;99586.48;105767;1294;58844;-73
2022/11/29 09:44:11;;;;;;;83.60;51.00;;;;;;;-0.18;100.00;99585.59;105955;1291;58849;-73
2022/11/29 09:46:52;;;;;;;73.70;45.70;;;;;;;-0.14;100.00;99586.59;105930;1290;67193;-72
2022/11/29 09:49:27;;;;;;;62.20;41.10;;;;;;;-0.12;100.00;99587.78;105914;1290;61209;-73
2022/11/29 09:52:09;;;;;;;68.00;43.70;;;;;;;-0.05;100.00;99585.75;105884;1290;65069;-73
2022/11/29 09:55:01;;;;;;;77.00;48.80;;;;;;;0.07;100.00;99587.68;105770;1290;58919;-73
2022/11/29 09:57:30;;;;;;;71.30;50.40;;;;;;;0.18;100.00;99584.71;105776;1294;58956;-72
2022/11/29 10:00:04;;;;;;;67.30;43.00;;;;;;;0.25;100.00;99585.65;105206;1290;1002281;-74
2022/11/29 10:02:37;;;;;;;58.50;37.90;;;;;;;0.31;100.00;99583.63;105921;1287;61219;-73
2022/11/29 10:05:18;;;;;;;57.30;36.00;;;;;;;0.29;100.00;99582.62;105916;1291;65246;-74
2022/11/29 10:07:57;;;;;;;59.80;37.40;;;;;;;0.27;100.00;99578.98;105918;1292;58900;-73
2022/11/29 10:10:30;;;;;;;59.40;39.20;;;;;;;0.28;100.00;99579.16;105795;1292;59038;-74
2022/11/29 10:13:06;;;;;;;53.20;34.10;;;;;;;0.35;100.00;99580.08;105181;1283;1002779;-73
2022/11/29 10:15:39;;;;;;;51.80;32.20;;;;;;;0.35;100.00;99578.52;105929;1287;58897;-73
2022/11/29 10:18:17;;;;;;;52.90;34.40;;;;;;;0.30;100.00;99578.23;105783;1287;65036;-73
2022/11/29 10:20:48;;;;;;;52.10;35.40;;;;;;;0.24;100.00;99577.28;105914;1291;59201;-74
2022/11/29 10:23:22;;;;;;;52.30;34.00;;;;;;;0.19;100.00;99574.73;105775;1297;60173;-73
2022/11/29 10:25:56;;;;;;;50.90;32.70;;;;;;;0.18;100.00;99577.71;105944;1290;64487;-72
2022/11/29 10:28:30;;;;;;;48.60;29.60;;;;;;;0.12;100.00;99579.92;105936;1292;67691;-73
2022/11/29 10:31:01;;;;;;;55.20;32.60;;;;;;;-0.12;100.00;99579.90;105924;1290;72391;-72
2022/11/29 10:33:31;;;;;;;49.70;29.20;;;;;;;-0.18;100.00;99580.54;105644;1294;58979;-73
2022/11/29 10:36:08;;;;;;;50.40;29.80;;;;;;;-0.24;100.00;99581.29;105770;1293;59009;-74
2022/11/29 10:38:37;;;;;;;58.20;32.70;;;;;;;-0.28;100.00;99581.01;105728;1290;74690;-73
2022/11/29 10:41:08;;;;;;;54.30;29.20;;;;;;;-0.31;100.00;99582.77;105730;1294;61109;-74
2022/11/29 10:43:36;;;;;;;52.20;29.80;;;;;;;-0.34;100.00;99581.44;105714;1299;65137;-73
2022/11/29 10:46:04;;;;;;;54.50;30.20;;;;;;;-0.30;100.00;99582.27;105499;1300;139421;-74
2022/11/29 10:48:33;;;;;;;;;;;;;;;-0.22;100.00;99584.08;105756;1288;58706;-74
2022/11/29 10:51:01;;;;;;;49.80;28.50;;;;;;;-0.17;100.00;99579.98;105726;1296;67444;-72
2022/11/29 10:53:35;;;;;;;60.90;37.70;;;;;;;-0.19;100.00;99576.35;105726;1295;60040;-73
2022/11/29 10:56:34;;;;;;;69.90;40.50;;;;;;;-0.11;100.00;99571.86;105618;1295;65202;-73
2022/11/29 10:59:04;;;;;;;61.50;37.60;;;;;;;-0.02;100.00;99571.21;104970;1302;59418;-73
2022/11/29 11:01:37;;;;;;;61.50;35.40;;;;;;;0.03;100.00;99573.06;105170;1299;61390;-74
2022/11/29 11:04:07;;;;;;;68.00;45.00;;;;;;;0.04;100.00;99571.65;104968;1302;74732;-73
2022/11/29 11:06:45;;;;;;;66.80;44.80;;;;;;;0.09;100.00;99572.97;105182;1304;68990;-73
2022/11/29 11:09:18;;;;;;;60.80;40.20;;;;;;;0.16;100.00;99570.94;105219;1299;64225;-74
2022/11/29 11:11:56;;;;;;;64.90;44.50;;;;;;;0.25;100.00;99570.27;105410;1304;59079;-74
2022/11/29 11:14:25;;;;;;;56.70;40.50;;;;;;;0.34;100.00;99566.98;105362;1295;60317;-74
2022/11/29 11:16:52;;;;;;;55.20;38.50;;;;;;;0.39;100.00;99567.77;105014;1301;66209;-74
2022/11/29 11:19:33;;;;;;;59.60;40.00;;;;;;;0.42;100.00;99569.65;105377;1297;68897;-73
2022/11/29 11:22:02;;;;;;;;;;;;;;;0.45;100.00;99567.69;105393;1298;64544;-73
2022/11/29 11:24:31;;;;;;;56.60;36.10;;;;;;;0.39;100.00;99569.52;105371;1304;59058;-73
2022/11/29 11:26:59;;;;;;;58.90;37.50;;;;;;;0.40;100.00;99567.23;104648;1295;1002342;-73
2022/11/29 11:29:34;;;;;;;57.20;40.40;;;;;;;0.45;100.00;99566.10;105390;1297;65893;-73
2022/11/29 11:32:00;;;;;;;50.70;32.80;;;;;;;0.45;100.00;99564.70;105226;1299;59963;-73
2022/11/29 11:34:36;;;;;;;56.70;33.40;;;;;;;0.38;100.00;99568.13;105247;1305;65124;-73
2022/11/29 11:37:14;;;;;;;55.70;34.30;;;;;;;0.29;100.00;99566.20;105449;1295;59132;-73
2022/11/29 11:39:42;;;;;;;58.60;37.40;;;;;;;0.35;100.00;99564.00;105619;1294;58967;-73
2022/11/29 11:45:06;;;;;;;61.10;35.40;;;;;;;0.56;100.00;99562.24;105394;1300;59978;-74
2022/11/29 11:47:40;;;;;;;59.30;35.30;;;;;;;0.57;100.00;99557.85;105599;1293;65269;-73
2022/11/29 11:50:26;;;;;;;49.00;30.50;;;;;;;0.41;100.00;99563.20;105601;1291;58923;-73